createdAt,value
2018-08-03T00:00:33.527Z,58.19
2018-08-03T00:03:02.141Z,57.40
2018-08-03T00:05:30.660Z,57.56
2018-08-03T00:07:59.246Z,58.08
2018-08-03T00:10:27.835Z,58.24
2018-08-03T00:12:56.489Z,58.41
2018-08-03T00:15:25.140Z,58.92
2018-08-03T00:17:53.657Z,57.47
2018-08-03T00:20:22.193Z,58.32
2018-08-03T00:22:51.055Z,58.72
2018-08-03T00:25:19.569Z,58.71
2018-08-03T00:27:48.114Z,58.00
2018-08-03T00:30:16.834Z,57.94
2018-08-03T00:32:45.539Z,58.74
2018-08-03T00:35:14.059Z,58.26
2018-08-03T00:37:42.569Z,58.47
2018-08-03T00:40:11.271Z,59.08
2018-08-03T00:42:39.800Z,59.01
2018-08-03T00:45:08.337Z,59.37
2018-08-03T00:47:37.003Z,58.58
2018-08-03T00:50:05.754Z,58.56
2018-08-03T00:52:34.513Z,58.76
2018-08-03T00:55:03.372Z,59.03
2018-08-03T00:57:32.218Z,58.81
2018-08-03T01:00:00.840Z,59.55
2018-08-03T01:02:29.374Z,58.94
2018-08-03T01:04:57.958Z,59.65
2018-08-03T01:07:26.471Z,58.99
2018-08-03T01:09:55.101Z,59.81
2018-08-03T01:12:23.632Z,59.01
2018-08-03T01:14:52.172Z,59.20
2018-08-03T01:17:20.700Z,59.98
2018-08-03T01:19:49.327Z,59.75
2018-08-03T01:22:18.242Z,59.72
2018-08-03T01:24:46.860Z,59.82
2018-08-03T01:27:15.402Z,60.01
2018-08-03T01:29:44.082Z,60.06
2018-08-03T01:32:12.597Z,60.59
2018-08-03T01:34:41.160Z,60.48
2018-08-03T01:37:09.673Z,60.71
2018-08-03T01:39:38.721Z,60.67
2018-08-03T01:42:07.295Z,60.32
2018-08-03T01:44:35.912Z,60.83
2018-08-03T01:47:04.493Z,61.93
2018-08-03T01:49:33.091Z,62.04
2018-08-03T01:52:01.637Z,61.32
2018-08-03T01:54:30.221Z,61.30
2018-08-03T01:56:58.738Z,61.73
2018-08-03T01:59:27.284Z,61.77
2018-08-03T02:01:55.907Z,61.66
2018-08-03T02:04:24.771Z,62.17
2018-08-03T02:06:53.393Z,61.85
2018-08-03T02:09:21.899Z,61.89
2018-08-03T02:11:50.615Z,61.68
2018-08-03T02:14:19.250Z,62.55
2018-08-03T02:16:47.748Z,62.23
2018-08-03T02:19:16.240Z,61.90
2018-08-03T02:21:44.770Z,62.28
2018-08-03T02:24:13.304Z,62.50
2018-08-03T02:26:41.767Z,63.03
2018-08-03T02:29:10.377Z,62.85
2018-08-03T02:31:38.944Z,62.85
2018-08-03T02:34:07.604Z,62.16
2018-08-03T02:36:36.088Z,62.14
2018-08-03T02:39:07.795Z,62.47
2018-08-03T02:41:36.438Z,62.70
2018-08-03T02:44:04.995Z,64.05
2018-08-03T02:46:33.544Z,62.90
2018-08-03T02:49:02.537Z,63.83
2018-08-03T02:51:31.200Z,63.57
2018-08-03T02:53:59.788Z,63.53
2018-08-03T02:56:28.334Z,63.89
2018-08-03T02:58:56.869Z,64.54
2018-08-03T03:01:25.397Z,64.76
2018-08-03T03:03:54.466Z,64.16
2018-08-03T03:06:23.077Z,64.80
2018-08-03T03:08:51.570Z,64.65
2018-08-03T03:11:20.110Z,64.65
2018-08-03T03:13:48.736Z,64.80
2018-08-03T03:16:17.283Z,64.41
2018-08-03T03:18:45.780Z,64.48
2018-08-03T03:21:14.623Z,65.41
2018-08-03T03:23:43.189Z,64.79
2018-08-03T03:26:11.741Z,65.19
2018-08-03T03:28:40.355Z,65.13
2018-08-03T03:31:08.929Z,65.31
2018-08-03T03:33:37.602Z,65.46
2018-08-03T03:36:06.222Z,66.09
2018-08-03T03:38:34.708Z,66.41
2018-08-03T03:41:03.381Z,65.90
2018-08-03T03:43:31.892Z,66.11
2018-08-03T03:46:00.412Z,65.51
2018-08-03T03:48:29.141Z,66.58
2018-08-03T03:50:57.691Z,66.54
2018-08-03T03:53:26.379Z,66.32
2018-08-03T03:55:54.894Z,67.18
2018-08-03T03:58:26.140Z,67.39
2018-08-03T04:00:54.908Z,67.37
2018-08-03T04:03:24.007Z,67.71
2018-08-03T04:05:53.014Z,67.58
2018-08-03T04:08:21.611Z,67.91
2018-08-03T04:10:50.254Z,67.90
2018-08-03T04:13:18.787Z,68.07
2018-08-03T04:15:51.383Z,68.25
2018-08-03T04:18:22.700Z,68.45
2018-08-03T04:20:52.580Z,67.78
2018-08-03T04:23:21.593Z,68.04
2018-08-03T04:25:50.390Z,67.76
2018-08-03T04:28:18.889Z,67.61
2018-08-03T04:30:47.397Z,66.63
2018-08-03T04:33:16.105Z,66.50
2018-08-03T04:35:44.660Z,66.99
2018-08-03T04:38:13.226Z,67.16
2018-08-03T04:40:41.753Z,67.02
2018-08-03T04:43:10.292Z,67.36
2018-08-03T04:45:38.860Z,67.57
2018-08-03T04:48:07.539Z,67.03
2018-08-03T04:50:36.154Z,67.62
2018-08-03T04:53:04.709Z,67.69
2018-08-03T04:55:33.563Z,67.71
2018-08-03T04:58:02.115Z,66.75
2018-08-03T05:00:30.669Z,67.33
2018-08-03T05:02:59.379Z,66.71
2018-08-03T05:05:27.950Z,67.16
2018-08-03T05:07:56.447Z,66.78
2018-08-03T05:10:25.002Z,66.11
2018-08-03T05:12:53.587Z,65.91
2018-08-03T05:15:22.212Z,65.95
2018-08-03T05:17:50.700Z,66.06
2018-08-03T05:20:19.336Z,65.12
2018-08-03T05:22:47.851Z,64.88
2018-08-03T05:25:16.359Z,65.33
2018-08-03T05:27:44.912Z,64.93
2018-08-03T05:30:13.454Z,64.99
2018-08-03T05:32:42.153Z,65.12
2018-08-03T05:35:10.756Z,64.06
2018-08-03T05:37:39.316Z,64.65
2018-08-03T05:40:07.985Z,63.51
2018-08-03T05:42:36.858Z,63.71
2018-08-03T05:45:06.650Z,63.81
2018-08-03T05:47:35.293Z,63.77
2018-08-03T05:50:04.070Z,63.79
2018-08-03T05:52:32.681Z,63.40
2018-08-03T05:55:01.247Z,63.33
2018-08-03T05:57:29.871Z,64.06
2018-08-03T05:59:58.760Z,63.60
2018-08-03T06:02:27.376Z,63.98
2018-08-03T06:04:55.967Z,64.16
2018-08-03T06:07:24.574Z,63.70
2018-08-03T06:09:53.191Z,63.14
2018-08-03T06:12:21.729Z,63.36
2018-08-03T06:14:50.313Z,62.83
2018-08-03T06:17:18.834Z,63.53
2018-08-03T06:19:47.494Z,61.96
2018-08-03T06:22:16.048Z,61.91
2018-08-03T06:24:44.669Z,61.28
2018-08-03T06:27:13.237Z,60.35
2018-08-03T06:29:42.124Z,59.88
2018-08-03T06:32:10.580Z,60.40
2018-08-03T06:34:39.146Z,61.08
2018-08-03T06:37:08.817Z,60.98
2018-08-03T06:39:37.343Z,60.32
2018-08-03T06:42:05.872Z,60.74
2018-08-03T06:44:34.478Z,60.73
2018-08-03T06:47:02.964Z,59.86
2018-08-03T06:49:31.640Z,60.19
2018-08-03T06:52:00.124Z,58.86
2018-08-03T06:54:28.753Z,58.51
2018-08-03T06:56:57.339Z,57.54
2018-08-03T06:59:25.980Z,58.23
2018-08-03T07:01:54.835Z,58.73
2018-08-03T07:04:24.281Z,58.71
2018-08-03T07:06:52.900Z,57.45
2018-08-03T07:09:21.750Z,56.95
2018-08-03T07:11:50.269Z,56.61
2018-08-03T07:14:19.036Z,57.05
2018-08-03T07:16:47.718Z,57.68
2018-08-03T07:19:16.254Z,57.56
2018-08-03T07:21:44.817Z,56.19
2018-08-03T07:24:13.349Z,55.59
2018-08-03T07:26:41.856Z,55.21
2018-08-03T07:29:10.483Z,55.69
2018-08-03T07:31:39.031Z,55.27
2018-08-03T07:34:07.597Z,55.42
2018-08-03T07:36:36.175Z,54.33
2018-08-03T07:39:07.319Z,53.39
2018-08-03T07:41:35.896Z,53.82
2018-08-03T07:44:04.493Z,53.49
2018-08-03T07:46:33.037Z,52.97
2018-08-03T07:49:01.573Z,52.00
2018-08-03T07:51:30.081Z,51.72
2018-08-03T07:53:58.628Z,51.78
2018-08-03T07:56:27.136Z,51.13
2018-08-03T07:58:55.668Z,50.26
2018-08-03T08:01:24.447Z,49.41
2018-08-03T08:03:52.941Z,48.73
2018-08-03T08:06:21.435Z,48.37
2018-08-03T08:08:50.112Z,49.54
2018-08-03T08:11:18.600Z,48.72
2018-08-03T08:13:47.536Z,47.00
2018-08-03T08:16:16.177Z,47.14
2018-08-03T08:18:44.705Z,46.94
2018-08-03T08:21:13.334Z,46.88
2018-08-03T08:23:41.940Z,47.20
2018-08-03T08:26:10.524Z,46.50
2018-08-03T08:28:39.043Z,46.61
2018-08-03T08:31:07.855Z,46.51
2018-08-03T08:33:36.476Z,45.41
2018-08-03T08:36:05.012Z,44.69
2018-08-03T08:38:33.663Z,45.45
2018-08-03T08:41:02.225Z,45.17
2018-08-03T08:43:30.809Z,43.78
2018-08-03T08:45:59.275Z,43.70
2018-08-03T08:48:27.807Z,43.01
2018-08-03T08:50:56.754Z,42.84
2018-08-03T08:53:25.240Z,43.33
2018-08-03T08:55:53.831Z,43.26
2018-08-03T08:58:22.423Z,43.96
2018-08-03T09:00:51.175Z,43.44
2018-08-03T09:03:19.782Z,42.44
2018-08-03T09:05:48.384Z,41.31
2018-08-03T09:08:17.022Z,40.56
2018-08-03T09:10:45.597Z,42.71
2018-08-03T09:13:14.361Z,42.40
2018-08-03T09:15:43.322Z,41.22
2018-08-03T09:18:11.882Z,41.23
2018-08-03T09:20:40.452Z,41.30
2018-08-03T09:23:09.038Z,40.71
2018-08-03T09:25:38.218Z,40.29
2018-08-03T09:28:07.271Z,40.74
2018-08-03T09:30:35.932Z,40.75
2018-08-03T09:33:04.842Z,39.59
2018-08-03T09:35:33.472Z,40.10
2018-08-03T09:38:02.037Z,39.74
2018-08-03T09:40:30.618Z,39.76
2018-08-03T09:42:59.275Z,40.14
2018-08-03T09:45:27.783Z,39.51
2018-08-03T09:47:56.320Z,39.11
2018-08-03T09:50:24.856Z,38.45
2018-08-03T09:52:53.359Z,38.68
2018-08-03T09:55:21.948Z,37.99
2018-08-03T09:57:50.620Z,38.27
2018-08-03T10:00:23.608Z,38.97
2018-08-03T10:02:52.115Z,38.26
2018-08-03T10:05:20.683Z,37.81
2018-08-03T10:07:49.233Z,38.12
2018-08-03T10:10:17.805Z,37.81
2018-08-03T10:12:46.395Z,37.10
2018-08-03T10:15:14.905Z,38.17
2018-08-03T10:17:43.408Z,37.36
2018-08-03T10:20:11.975Z,37.35
2018-08-03T10:22:40.559Z,36.18
2018-08-03T10:25:09.231Z,38.72
2018-08-03T10:27:37.927Z,37.60
2018-08-03T10:30:06.761Z,36.36
2018-08-03T10:32:36.095Z,36.24
2018-08-03T10:35:05.262Z,36.87
2018-08-03T10:37:33.744Z,36.20
2018-08-03T10:40:02.272Z,36.42
2018-08-03T10:42:30.833Z,35.25
2018-08-03T10:44:59.472Z,36.15
2018-08-03T10:47:27.967Z,36.13
2018-08-03T10:49:56.570Z,34.69
2018-08-03T10:52:25.163Z,35.15
2018-08-03T10:54:54.320Z,36.19
2018-08-03T10:57:22.911Z,35.59
2018-08-03T10:59:51.599Z,35.79
2018-08-03T11:02:20.171Z,34.06
2018-08-03T11:04:48.958Z,35.20
2018-08-03T11:07:17.593Z,34.45
2018-08-03T11:09:46.223Z,34.75
2018-08-03T11:12:15.299Z,35.95
2018-08-03T11:14:43.842Z,34.80
2018-08-03T11:17:12.378Z,34.85
2018-08-03T11:19:41.092Z,34.58
2018-08-03T11:22:09.632Z,34.03
2018-08-03T11:24:38.233Z,33.30
2018-08-03T11:27:07.060Z,33.55
2018-08-03T11:29:35.682Z,34.97
2018-08-03T11:32:04.243Z,33.48
2018-08-03T11:34:32.969Z,34.80
2018-08-03T11:37:01.600Z,34.50
2018-08-03T11:39:30.110Z,33.64
2018-08-03T11:41:58.721Z,34.07
2018-08-03T11:44:27.286Z,33.73
2018-08-03T11:46:55.863Z,33.58
2018-08-03T11:49:24.633Z,33.50
2018-08-03T11:51:53.232Z,33.32
2018-08-03T11:54:21.747Z,32.94
2018-08-03T11:56:50.282Z,33.33
2018-08-03T11:59:19.539Z,34.27
2018-08-03T12:01:48.079Z,33.31
2018-08-03T12:04:16.621Z,33.71
2018-08-03T12:06:45.156Z,33.40
2018-08-03T12:09:13.768Z,32.85
2018-08-03T12:11:42.309Z,33.42
2018-08-03T12:14:11.566Z,32.58
2018-08-03T12:16:40.099Z,31.33
2018-08-03T12:19:08.891Z,32.62
2018-08-03T12:21:37.711Z,37.08
2018-08-03T12:24:06.467Z,34.33
2018-08-03T12:26:35.170Z,33.02
2018-08-03T12:29:03.810Z,34.53
2018-08-03T12:31:32.461Z,33.77
2018-08-03T12:34:01.127Z,31.26
2018-08-03T12:36:29.911Z,32.95
2018-08-03T12:38:58.468Z,30.65
2018-08-03T12:41:27.172Z,31.02
2018-08-03T12:43:55.690Z,30.12
2018-08-03T12:46:24.254Z,29.15
2018-08-03T12:48:53.112Z,30.27
2018-08-03T12:51:21.705Z,28.85
2018-08-03T12:53:50.252Z,28.53
2018-08-03T12:56:18.741Z,25.20
2018-08-03T12:58:47.641Z,27.72
2018-08-03T13:01:16.257Z,25.62
2018-08-03T13:03:44.855Z,25.60
2018-08-03T13:06:13.516Z,25.41
2018-08-03T13:08:42.309Z,24.71
2018-08-03T13:11:11.089Z,25.77
2018-08-03T13:13:40.281Z,28.93
2018-08-03T13:16:08.872Z,28.45
2018-08-03T13:18:37.680Z,28.33
2018-08-03T13:21:17.398Z,26.38
2018-08-03T13:23:56.468Z,28.56
2018-08-03T13:26:25.785Z,28.54
2018-08-03T13:28:54.920Z,29.08
2018-08-03T13:31:24.806Z,29.04
2018-08-03T13:33:53.461Z,29.00
2018-08-03T13:36:23.226Z,29.27
2018-08-03T13:38:52.059Z,27.73
2018-08-03T13:41:20.661Z,25.35
2018-08-03T13:43:49.226Z,24.22
2018-08-03T13:46:18.200Z,25.00
2018-08-03T13:48:47.907Z,26.56
2018-08-03T13:51:17.582Z,26.22
2018-08-03T13:53:47.011Z,25.03
2018-08-03T13:56:16.225Z,24.38
2018-08-03T13:58:45.987Z,26.12
2018-08-03T14:01:25.852Z,24.11
2018-08-03T14:03:54.799Z,24.45
2018-08-03T14:06:23.297Z,25.02
2018-08-03T14:08:51.872Z,22.74
2018-08-03T14:11:20.712Z,22.71
2018-08-03T14:13:49.345Z,21.98
2018-08-03T14:16:17.933Z,23.99
2018-08-03T14:18:47.831Z,23.58
2018-08-03T14:21:16.609Z,23.45
2018-08-03T14:23:45.249Z,24.80
2018-08-03T14:26:13.917Z,23.96
2018-08-03T14:28:42.737Z,25.05
2018-08-03T14:31:11.416Z,25.95
2018-08-03T14:33:40.643Z,26.17
2018-08-03T14:36:09.302Z,23.95
2018-08-03T14:38:37.954Z,25.48
2018-08-03T14:41:06.658Z,25.44
2018-08-03T14:43:35.278Z,23.98
2018-08-03T14:46:04.005Z,25.96
2018-08-03T14:48:32.812Z,24.34
2018-08-03T14:51:02.863Z,24.18
2018-08-03T14:53:31.444Z,23.27
2018-08-03T14:55:59.975Z,23.19
2018-08-03T14:58:28.534Z,22.67
2018-08-03T15:00:57.186Z,24.45
2018-08-03T15:03:26.404Z,23.12
2018-08-03T15:05:55.112Z,25.29
2018-08-03T15:08:23.640Z,23.44
2018-08-03T15:10:52.501Z,24.26
2018-08-03T15:13:21.097Z,23.48
2018-08-03T15:15:49.699Z,23.80
2018-08-03T15:18:18.630Z,24.12
2018-08-03T15:20:47.149Z,26.30
2018-08-03T15:23:15.786Z,25.10
2018-08-03T15:25:44.376Z,25.65
2018-08-03T15:28:12.990Z,24.10
2018-08-03T15:30:41.580Z,25.17
2018-08-03T15:33:10.174Z,25.78
2018-08-03T15:35:38.714Z,24.13
2018-08-03T15:38:07.523Z,26.44
2018-08-03T15:40:36.365Z,25.35
2018-08-03T15:43:05.359Z,24.40
2018-08-03T15:45:35.321Z,25.17
2018-08-03T15:48:04.123Z,22.90
2018-08-03T15:50:32.765Z,24.00
2018-08-03T15:53:01.525Z,24.28
2018-08-03T15:55:30.116Z,21.97
2018-08-03T15:57:58.672Z,23.51
2018-08-03T16:00:27.302Z,26.42
2018-08-03T16:02:55.937Z,24.90
2018-08-03T16:05:24.516Z,24.96
2018-08-03T16:07:53.127Z,25.46
2018-08-03T16:10:21.656Z,25.80
2018-08-03T16:12:50.242Z,25.66
2018-08-03T16:15:18.866Z,24.15
2018-08-03T16:17:47.464Z,24.27
2018-08-03T16:20:16.052Z,22.28
2018-08-03T16:22:44.627Z,23.09
2018-08-03T16:25:13.199Z,24.59
2018-08-03T16:27:41.856Z,25.56
2018-08-03T16:30:11.009Z,24.51
2018-08-03T16:32:40.070Z,22.69
2018-08-03T16:35:09.506Z,22.52
2018-08-03T16:37:38.018Z,22.93
2018-08-03T16:40:07.820Z,25.08
2018-08-03T16:42:36.710Z,24.28
2018-08-03T16:45:06.281Z,24.84
2018-08-03T16:47:35.162Z,26.46
2018-08-03T16:50:03.809Z,27.52
2018-08-03T16:52:36.008Z,27.36
2018-08-03T16:55:04.628Z,26.47
2018-08-03T16:57:33.326Z,26.56
2018-08-03T17:00:02.282Z,26.39
2018-08-03T17:02:30.854Z,26.86
2018-08-03T17:04:59.424Z,27.84
2018-08-03T17:07:28.094Z,28.20
2018-08-03T17:09:56.695Z,28.47
2018-08-03T17:12:25.306Z,29.10
2018-08-03T17:14:53.811Z,27.88
2018-08-03T17:17:22.512Z,28.98
2018-08-03T17:19:51.260Z,29.47
2018-08-03T17:22:20.798Z,28.65
2018-08-03T17:24:49.315Z,28.17
2018-08-03T17:27:17.909Z,28.93
2018-08-03T17:29:46.453Z,30.29
2018-08-03T17:32:15.383Z,31.86
2018-08-03T17:34:43.988Z,31.73
2018-08-03T17:37:12.557Z,32.13
2018-08-03T17:39:41.105Z,31.80
2018-08-03T17:42:09.653Z,31.05
2018-08-03T17:44:38.401Z,31.45
2018-08-03T17:47:06.967Z,29.76
2018-08-03T17:49:35.720Z,30.50
2018-08-03T17:52:04.319Z,31.58
2018-08-03T17:54:32.860Z,31.94
2018-08-03T17:57:01.393Z,31.69
2018-08-03T17:59:30.000Z,32.85
2018-08-03T18:01:58.525Z,30.40
2018-08-03T18:04:27.097Z,31.58
2018-08-03T18:06:56.933Z,32.36
2018-08-03T18:09:25.668Z,33.82
2018-08-03T18:11:54.192Z,32.48
2018-08-03T18:14:22.847Z,32.37
2018-08-03T18:16:51.409Z,34.00
2018-08-03T18:19:19.989Z,33.46
2018-08-03T18:21:48.640Z,32.96
2018-08-03T18:24:17.274Z,33.89
2018-08-03T18:26:45.814Z,34.31
2018-08-03T18:29:14.501Z,35.65
2018-08-03T18:31:43.043Z,36.33
2018-08-03T18:34:11.641Z,36.15
2018-08-03T18:36:40.197Z,37.32
2018-08-03T18:39:10.486Z,36.41
2018-08-03T18:41:39.300Z,37.65
2018-08-03T18:44:08.095Z,36.68
2018-08-03T18:46:36.686Z,37.60
2018-08-03T18:49:05.299Z,36.83
2018-08-03T18:51:34.036Z,37.36
2018-08-03T18:54:02.656Z,37.33
2018-08-03T18:56:31.268Z,37.62
2018-08-03T18:58:59.816Z,38.25
2018-08-03T19:01:28.487Z,38.64
2018-08-03T19:03:57.146Z,38.32
2018-08-03T19:06:25.729Z,38.59
2018-08-03T19:08:54.346Z,39.05
2018-08-03T19:11:22.931Z,39.85
2018-08-03T19:13:51.694Z,40.11
2018-08-03T19:16:20.246Z,39.43
2018-08-03T19:18:48.819Z,39.81
2018-08-03T19:21:17.620Z,40.30
2018-08-03T19:23:46.232Z,40.29
2018-08-03T19:26:14.891Z,41.13
2018-08-03T19:28:44.349Z,41.53
2018-08-03T19:31:12.986Z,40.80
2018-08-03T19:33:41.533Z,40.85
2018-08-03T19:36:10.375Z,41.37
2018-08-03T19:38:39.035Z,42.44
2018-08-03T19:41:07.594Z,42.26
2018-08-03T19:43:36.146Z,42.62
2018-08-03T19:46:04.966Z,42.55
2018-08-03T19:48:33.779Z,42.71
2018-08-03T19:51:02.380Z,42.54
2018-08-03T19:53:30.984Z,42.87
2018-08-03T19:55:59.643Z,42.49
2018-08-03T19:58:28.417Z,42.78
2018-08-03T20:00:57.004Z,43.91
2018-08-03T20:03:31.889Z,44.17
2018-08-03T20:06:00.504Z,44.17
2018-08-03T20:08:29.022Z,44.77
2018-08-03T20:10:57.672Z,43.91
2018-08-03T20:13:26.388Z,45.13
2018-08-03T20:15:54.944Z,44.40
2018-08-03T20:18:23.587Z,44.92
2018-08-03T20:20:52.176Z,45.34
2018-08-03T20:23:20.711Z,45.88
2018-08-03T20:25:49.336Z,45.92
2018-08-03T20:28:18.046Z,45.71
2018-08-03T20:30:46.766Z,45.44
2018-08-03T20:33:15.363Z,46.34
2018-08-03T20:35:44.069Z,45.80
2018-08-03T20:38:12.759Z,46.12
2018-08-03T20:40:41.433Z,46.28
2018-08-03T20:43:10.079Z,47.71
2018-08-03T20:45:38.691Z,47.01
2018-08-03T20:48:07.238Z,47.60
2018-08-03T20:50:35.801Z,48.15
2018-08-03T20:53:04.667Z,48.32
2018-08-03T20:55:33.505Z,48.09
2018-08-03T20:58:02.136Z,48.57
2018-08-03T21:00:30.744Z,49.10
2018-08-03T21:02:59.382Z,48.43
2018-08-03T21:05:28.038Z,48.49
2018-08-03T21:07:56.540Z,49.18
2018-08-03T21:10:25.161Z,50.11
2018-08-03T21:12:53.948Z,50.39
2018-08-03T21:15:22.514Z,49.86
2018-08-03T21:17:51.074Z,50.97
2018-08-03T21:20:19.576Z,50.88
2018-08-03T21:22:48.120Z,51.03
2018-08-03T21:25:16.806Z,50.22
2018-08-03T21:27:45.325Z,51.33
2018-08-03T21:30:13.887Z,50.53
2018-08-03T21:32:42.702Z,50.77
2018-08-03T21:35:11.224Z,51.37
2018-08-03T21:37:39.751Z,52.19
2018-08-03T21:40:08.337Z,51.22
2018-08-03T21:42:36.871Z,52.29
2018-08-03T21:45:06.080Z,51.97
2018-08-03T21:47:34.647Z,52.03
2018-08-03T21:50:03.602Z,53.27
2018-08-03T21:52:32.357Z,52.77
2018-08-03T21:55:01.012Z,53.76
2018-08-03T21:57:29.938Z,53.03
2018-08-03T21:59:58.703Z,53.31
2018-08-03T22:02:27.494Z,53.29
2018-08-03T22:04:56.154Z,53.37
2018-08-03T22:07:24.867Z,54.22
2018-08-03T22:09:53.557Z,54.30
2018-08-03T22:12:22.173Z,54.31
2018-08-03T22:14:50.719Z,53.48
2018-08-03T22:17:19.515Z,53.90
2018-08-03T22:19:48.189Z,54.29
2018-08-03T22:22:16.741Z,54.76
2018-08-03T22:24:45.321Z,55.60
2018-08-03T22:27:13.935Z,55.89
2018-08-03T22:29:42.444Z,54.99
2018-08-03T22:32:11.626Z,56.00
2018-08-03T22:34:40.132Z,54.97
2018-08-03T22:37:08.732Z,56.35
2018-08-03T22:39:37.220Z,57.64
2018-08-03T22:42:06.083Z,56.24
2018-08-03T22:44:34.698Z,56.71
2018-08-03T22:47:03.222Z,57.16
2018-08-03T22:49:31.787Z,57.07
2018-08-03T22:52:00.340Z,57.63
2018-08-03T22:54:29.124Z,57.26
2018-08-03T22:56:57.743Z,58.32
2018-08-03T22:59:26.317Z,57.55
2018-08-03T23:01:54.929Z,58.25
2018-08-03T23:04:23.601Z,57.46
2018-08-03T23:06:52.170Z,57.13
2018-08-03T23:09:20.705Z,57.46
2018-08-03T23:11:49.308Z,57.78
2018-08-03T23:14:18.035Z,57.67
2018-08-03T23:16:46.614Z,56.92
2018-08-03T23:19:15.304Z,57.70
2018-08-03T23:21:44.196Z,57.42
2018-08-03T23:24:12.817Z,57.12
2018-08-03T23:26:41.465Z,57.63
2018-08-03T23:29:09.979Z,57.37
2018-08-03T23:31:38.678Z,57.68
2018-08-03T23:34:07.320Z,57.93
2018-08-03T23:36:35.905Z,57.94
2018-08-03T23:39:06.266Z,58.89
2018-08-03T23:41:34.841Z,58.69
2018-08-03T23:44:03.375Z,58.62
2018-08-03T23:46:31.904Z,58.49
2018-08-03T23:49:00.549Z,59.15
2018-08-03T23:51:29.053Z,59.60
2018-08-03T23:53:57.627Z,59.51
2018-08-03T23:56:26.414Z,58.72
2018-08-03T23:58:54.958Z,59.93
